Time;durP1;ratioP1;P1;durP2;ratioP2;P2;SDS_P1;SDS_P2;PMS_P1;PMS_P2;Temp;Humidity;BMP_temperature;BMP_pressure;BME280_temperature;BME280_humidity;BME280_pressure;Samples;Min_cycle;Max_cycle;Signal;HPM_P1;HPM_P2
2023/01/18 06:49:05;;;;;;;;;;;;;;;;;;5968232;23;19922;-86
2023/01/18 06:51:31;;;;;;;;;;;;;;;;;;4917434;29;19927;-88
2023/01/18 06:53:56;;;;;;;;;;;;;;;;;;4918479;29;20015;-86
2023/01/18 06:56:21;;;;;;;;;;;;;;;;;;4918251;29;19927;-87
2023/01/18 06:58:47;;;;;;;;;;;;;;;;;;4903820;29;19919;-86
2023/01/18 07:01:12;;;;;;;;;;;;;;;;;;4899257;29;20374;-85
2023/01/18 07:03:37;;;;;;;;;;;;;;;;;;4899867;29;19923;-86
2023/01/18 07:06:03;;;;;;;;;;;;;;;;;;4899318;29;19967;-85
2023/01/18 07:08:33;;;;;;;;;;;;;;;;;;4899315;29;20018;-87
2023/01/18 07:11:02;;;;;;;;;;;;;;;;;;4898263;29;20398;-87
2023/01/18 17:38:57;;;;;;;;;;;;;;;;;;5151387;23;19925;-94
2023/01/18 17:41:24;;;;;;;;;;;;;;;;;;4927025;29;20385;-90
2023/01/18 17:43:51;;;;;;;;;;;;;;;;;;4947812;29;19922;-93
2023/01/18 18:21:36;;;;;;;;;;;;;;;;;;5637591;23;19931;-95
2023/01/18 18:24:01;;;;;;;;;;;;;;;;;;4923944;29;19923;-95
2023/01/18 18:26:29;;;;;;;;;;;;;;;;;;4924091;29;19903;-95
2023/01/18 18:28:57;;;;;;;;;;;;;;;;;;4907564;29;19926;-95
2023/01/18 18:31:23;;;;;;;;;;;;;;;;;;4908969;29;20054;-95
2023/01/18 18:33:48;;;;;;;;;;;;;;;;;;4909093;29;20370;-94
2023/01/18 18:36:15;;;;;;;;;;;;;;;;;;4908907;29;19910;-95
2023/01/18 18:38:44;;;;;;;;;;;;;;;;;;4908220;29;19919;-96
2023/01/18 18:41:09;;;;;;;;;;;;;;;;;;4989088;23;20024;-93
2023/01/18 18:43:36;;;;;;;;;;;;;;;;;;4961951;28;20407;-96
2023/01/18 18:54:03;;;;;;;;;;;;;;;;;;5053790;23;19926;-96
2023/01/18 18:56:31;;;;;;;;;;;;;;;;;;4931588;28;19909;-96
2023/01/18 18:58:59;;;;;;;;;;;;;;;;;;5203052;23;19964;-96
2023/01/18 19:01:30;;;;;;;;;;;;;;;;;;4932887;29;19923;-95
2023/01/18 19:07:08;;;;;;;;;;;;;;;;;;5566349;23;19917;-95
2023/01/18 19:09:37;;;;;;;;;;;;;;;;;;5273298;23;20018;-93
2023/01/18 19:12:03;;;;;;;;;;;;;;;;;;4919815;29;20038;-90
2023/01/18 19:14:29;;;;;;;;;;;;;;;;;;4921276;29;19946;-94
2023/01/18 19:16:54;;;;;;;;;;;;;;;;;;4924046;29;19919;-91
2023/01/18 19:19:20;;;;;;;;;;;;;;;;;;4922916;29;19930;-90
2023/01/18 19:21:48;;;;;;;;;;;;;;;;;;4923890;29;19918;-91
2023/01/18 19:24:14;;;;;;;;;;;;;;;;;;5286215;23;19922;-94
2023/01/18 19:26:41;;;;;;;;;;;;;;;;;;4965648;29;19985;-90
2023/01/18 19:31:51;;;;;;;;;;;;;;;;;;5959407;23;19922;-93
2023/01/18 19:36:57;;;;;;;;;;;;;;;;;;5298425;23;19927;-96
2023/01/18 19:39:35;;;;;;;;;;;;;;;;;;;;;
2023/01/18 19:52:49;;;;;;;;;;;;;;;;;;4960124;23;19927;-95
2023/01/18 19:55:14;;;;;;;;;;;;;;;;;;4924701;29;19923;-95
2023/01/18 19:57:40;;;;;;;;;;;;;;;;;;4924277;29;19919;-95
2023/01/18 20:00:05;;;;;;;;;;;;;;;;;;4923569;29;19918;-95
2023/01/18 20:02:31;;;;;;;;;;;;;;;;;;4921386;29;20021;-94
2023/01/18 20:04:57;;;;;;;;;;;;;;;;;;4921250;29;19930;-93
2023/01/18 20:07:22;;;;;;;;;;;;;;;;;;4923983;29;19919;-93
2023/01/18 20:09:47;;;;;;;;;;;;;;;;;;4925733;29;19919;-94
2023/01/18 20:12:13;;;;;;;;;;;;;;;;;;4923273;29;20358;-96
2023/01/18 20:14:39;;;;;;;;;;;;;;;;;;4922100;29;20036;-94
2023/01/18 20:19:30;;;;;;;;;;;;;;;;;;4961973;23;19911;-86
2023/01/18 20:21:55;;;;;;;;;;;;;;;;;;4924099;29;19919;-96
2023/01/18 20:24:20;;;;;;;;;;;;;;;;;;4942677;29;19919;-95
2023/01/18 20:26:46;;;;;;;;;;;;;;;;;;4941035;29;19926;-87
2023/01/18 20:29:12;;;;;;;;;;;;;;;;;;4940984;29;19927;-88
2023/01/18 20:31:38;;;;;;;;;;;;;;;;;;4940230;29;19966;-94
2023/01/18 20:34:04;;;;;;;;;;;;;;;;;;4940209;29;19925;-90
2023/01/18 20:36:29;;;;;;;;;;;;;;;;;;4922736;29;20019;-91
2023/01/18 20:38:54;;;;;;;;;;;;;;;;;;4923011;29;19925;-87
2023/01/18 20:41:20;;;;;;;;;;;;;;;;;;4943743;29;19903;-94
2023/01/18 20:43:45;;;;;;;;;;;;;;;;;;4931668;29;19919;-94
2023/01/18 20:46:11;;;;;;;;;;;;;;;;;;4933067;29;20009;-96
2023/01/18 20:48:37;;;;;;;;;;;;;;;;;;4929839;29;19919;-94
2023/01/18 20:51:04;;;;;;;;;;;;;;;;;;4931774;29;19915;-96
2023/01/18 20:53:31;;;;;;;;;;;;;;;;;;4914278;29;19922;-94
2023/01/18 20:56:12;;;;;;;;;;;;;;;;;;4930433;29;19943;-96
2023/01/18 20:58:38;;;;;;;;;;;;;;;;;;4929267;29;19925;-96
2023/01/18 21:01:07;;;;;;;;;;;;;;;;;;4930155;29;19982;-94
2023/01/18 21:03:32;;;;;;;;;;;;;;;;;;4932200;29;19919;-94
2023/01/18 21:06:02;;;;;;;;;;;;;;;;;;4931733;29;19929;-96
2023/01/18 21:08:27;;;;;;;;;;;;;;;;;;4929130;29;19919;-93
2023/01/18 21:10:52;;;;;;;;;;;;;;;;;;4929493;29;19925;-95
2023/01/18 21:13:18;;;;;;;;;;;;;;;;;;4928012;29;19926;-95
2023/01/18 21:15:52;;;;;;;;;;;;;;;;;;4931324;29;19942;-91
2023/01/18 21:18:17;;;;;;;;;;;;;;;;;;4949539;23;20317;-91
2023/01/18 21:20:46;;;;;;;;;;;;;;;;;;4945885;29;19922;-93
2023/01/18 21:23:14;;;;;;;;;;;;;;;;;;4942479;29;20329;-92
2023/01/18 21:25:47;;;;;;;;;;;;;;;;;;4925427;29;19927;-93
2023/01/18 21:28:14;;;;;;;;;;;;;;;;;;4926314;29;20034;-92
2023/01/18 21:30:39;;;;;;;;;;;;;;;;;;4927857;29;20098;-93
2023/01/18 21:33:04;;;;;;;;;;;;;;;;;;4927264;29;19919;-94
2023/01/18 21:35:30;;;;;;;;;;;;;;;;;;4926829;29;19946;-95
2023/01/18 21:37:58;;;;;;;;;;;;;;;;;;4927689;29;19925;-92
2023/01/18 21:40:23;;;;;;;;;;;;;;;;;;4939959;23;19918;-90
2023/01/18 21:48:17;;;;;;;;;;;;;;;;;;5007674;23;20016;-94
2023/01/18 21:56:10;;;;;;;;;;;;;;;;;;4999040;28;19924;-93
2023/01/18 22:01:23;;;;;;;;;;;;;;;;;;5167787;23;19934;-96
2023/01/18 22:06:33;;;;;;;;;;;;;;;;;;4977907;28;20381;-96
2023/01/18 22:08:59;;;;;;;;;;;;;;;;;;4976562;28;19918;-94
2023/01/18 22:11:24;;;;;;;;;;;;;;;;;;4976391;28;19918;-96
2023/01/18 22:13:50;;;;;;;;;;;;;;;;;;4976315;28;19973;-96
2023/01/18 22:16:15;;;;;;;;;;;;;;;;;;4976113;28;19918;-96
2023/01/18 22:18:40;;;;;;;;;;;;;;;;;;4975915;28;19918;-96
2023/01/18 22:21:06;;;;;;;;;;;;;;;;;;4976312;28;19922;-95
2023/01/18 22:23:33;;;;;;;;;;;;;;;;;;4975972;28;19956;-95
2023/01/18 22:26:01;;;;;;;;;;;;;;;;;;4976152;28;19918;-96
2023/01/18 22:28:26;;;;;;;;;;;;;;;;;;4976512;28;20408;-96
2023/01/18 22:30:52;;;;;;;;;;;;;;;;;;4976367;28;19922;-96
2023/01/18 22:33:17;;;;;;;;;;;;;;;;;;4975819;28;19918;-95
2023/01/18 22:35:43;;;;;;;;;;;;;;;;;;4976368;28;19914;-95
2023/01/18 22:38:09;;;;;;;;;;;;;;;;;;4977681;28;20026;-96
2023/01/18 22:40:35;;;;;;;;;;;;;;;;;;4979586;28;19997;-95
2023/01/18 22:43:00;;;;;;;;;;;;;;;;;;4980136;28;20305;-95
2023/01/18 22:45:28;;;;;;;;;;;;;;;;;;4976637;28;19961;-95
2023/01/18 22:47:56;;;;;;;;;;;;;;;;;;4975773;28;19925;-94
2023/01/18 22:50:21;;;;;;;;;;;;;;;;;;4975647;28;19953;-95
2023/01/18 22:52:47;;;;;;;;;;;;;;;;;;4975569;28;20024;-96
2023/01/18 22:55:12;;;;;;;;;;;;;;;;;;4975599;28;20355;-96
2023/01/18 22:57:37;;;;;;;;;;;;;;;;;;4975547;28;19923;-96
2023/01/18 23:00:04;;;;;;;;;;;;;;;;;;4975436;28;19925;-95
2023/01/18 23:02:31;;;;;;;;;;;;;;;;;;4975203;28;19922;-96
2023/01/18 23:04:59;;;;;;;;;;;;;;;;;;4974955;28;19918;-96
2023/01/18 23:07:25;;;;;;;;;;;;;;;;;;4975321;28;19925;-96
2023/01/18 23:09:50;;;;;;;;;;;;;;;;;;4975760;28;20280;-95
2023/01/18 23:12:21;;;;;;;;;;;;;;;;;;4976028;28;19948;-96
2023/01/18 23:17:41;;;;;;;;;;;;;;;;;;5050689;23;19972;-94
2023/01/18 23:20:36;;;;;;;;;;;;;;;;;;4991646;28;19926;-96
2023/01/18 23:23:02;;;;;;;;;;;;;;;;;;4913654;29;19919;-96
2023/01/18 23:25:28;;;;;;;;;;;;;;;;;;4917592;29;19923;-94
2023/01/18 23:27:55;;;;;;;;;;;;;;;;;;4933505;29;20477;-94
2023/01/18 23:30:21;;;;;;;;;;;;;;;;;;4907278;29;19925;-94
2023/01/18 23:32:47;;;;;;;;;;;;;;;;;;4924911;29;19996;-94
2023/01/18 23:35:17;;;;;;;;;;;;;;;;;;4931505;29;19931;-95
2023/01/18 23:37:48;;;;;;;;;;;;;;;;;;4973819;23;19969;-95
